Time,TemperatureF,DewpointF,PressureIn,WindDirection,WindDirectionDegrees,WindSpeedMPH,WindSpeedGustMPH,Humidity,HourlyPrecipIn,Conditions,Clouds,dailyrainin,SoftwareType,DateUTC
2013-02-08 00:00:00,6.5,-1.8,28.92,NE,39,10.0,12.0,68,0.00,CLR,,0.00,WeatherDisplay:10.37,2013-02-07 11:00:00,
2013-02-08 00:15:00,6.6,-2.1,28.91,NE,34,12.0,12.0,67,0.00,CLR,,0.00,WeatherDisplay:10.37,2013-02-07 11:15:00,
2013-02-08 00:30:00,6.8,-2.5,28.91,NNE,27,13.0,13.0,65,0.00,CLR,,0.00,WeatherDisplay:10.37,2013-02-07 11:30:00,
2013-02-08 00:45:00,7.0,-4.0,28.91,NNE,25,15.0,15.0,60,0.00,CLR,,0.00,WeatherDisplay:10.37,2013-02-07 11:45:00,
2013-02-08 01:00:00,7.0,-4.3,28.91,NNE,24,15.0,15.0,59,0.00,CLR,,0.00,WeatherDisplay:10.37,2013-02-07 12:00:00,
2013-02-08 01:15:00,7.1,-3.9,28.91,NNE,25,15.0,15.0,60,0.00,CLR,,0.00,WeatherDisplay:10.37,2013-02-07 12:15:00,
2013-02-08 01:30:00,7.3,-4.4,28.91,NNE,24,15.0,15.0,58,0.00,CLR,,0.00,WeatherDisplay:10.37,2013-02-07 12:30:00,
2013-02-08 01:45:00,7.4,-4.6,28.91,NNE,25,15.0,15.0,57,0.00,CLR,,0.00,WeatherDisplay:10.37,2013-02-07 12:45:00,
2013-02-08 02:00:00,7.5,-4.6,28.91,NNE,27,14.0,15.0,57,0.00,CLR,,0.00,WeatherDisplay:10.37,2013-02-07 13:00:00,
2013-02-08 02:15:00,7.5,-3.5,28.91,NNE,31,14.0,14.0,60,0.00,CLR,,0.00,WeatherDisplay:10.37,2013-02-07 13:15:00,
2013-02-08 02:30:00,7.4,-2.6,28.91,NE,34,12.0,14.0,63,0.00,CLR,,0.00,WeatherDisplay:10.37,2013-02-07 13:30:00,
2013-02-08 02:45:00,7.4,-2.2,28.91,NE,39,10.0,12.0,64,0.00,CLR,,0.00,WeatherDisplay:10.37,2013-02-07 13:45:00,
2013-02-08 03:00:00,7.4,-2.0,28.90,NE,37,9.0,10.0,65,0.00,CLR,,0.00,WeatherDisplay:10.37,2013-02-07 14:00:00,
2013-02-08 03:15:00,7.5,-1.5,28.90,NE,39,9.0,9.0,66,0.00,CLR,,0.00,WeatherDisplay:10.37,2013-02-07 14:15:00,
2013-02-08 03:30:00,7.4,-1.3,28.89,NE,39,8.0,9.0,67,0.00,CLR,,0.00,WeatherDisplay:10.37,2013-02-07 14:30:00,
2013-02-08 03:45:00,7.3,-1.1,28.89,NE,36,8.0,8.0,68,0.00,CLR,,0.00,WeatherDisplay:10.37,2013-02-07 14:45:00,
2013-02-08 04:00:00,7.5,-0.9,28.89,NE,41,7.0,8.0,68,0.00,CLR,,0.00,WeatherDisplay:10.37,2013-02-07 15:00:00,
2013-02-08 04:15:00,7.6,-1.1,28.89,NE,50,5.0,7.0,67,0.00,CLR,,0.00,WeatherDisplay:10.37,2013-02-07 15:15:00,
2013-02-08 04:30:00,7.4,-0.6,28.89,ENE,60,2.0,5.0,69,0.00,CLR,,0.00,WeatherDisplay:10.37,2013-02-07 15:30:00,
2013-02-08 04:45:00,7.2,0.1,28.90,North,0,0.0,2.0,72,0.00,CLR,,0.00,WeatherDisplay:10.37,2013-02-07 15:45:00,
2013-02-08 05:00:00,7.3,-0.4,28.90,North,0,0.0,0.0,70,0.00,CLR,,0.00,WeatherDisplay:10.37,2013-02-07 16:00:00,
2013-02-08 05:15:00,7.3,-1.1,28.90,North,0,0.0,0.0,68,0.00,CLR,,0.00,WeatherDisplay:10.37,2013-02-07 16:15:00,
2013-02-08 05:30:00,8.2,-0.5,28.90,North,0,0.0,0.0,67,0.00,CLR,,0.00,WeatherDisplay:10.37,2013-02-07 16:30:00,
2013-02-08 05:45:00,8.8,-0.9,28.90,NE,45,1.0,1.0,64,0.00,CLR,,0.00,WeatherDisplay:10.37,2013-02-07 16:45:00,
2013-02-08 06:00:00,8.2,-1.2,28.90,NE,55,3.0,3.0,65,0.00,CLR,,0.00,WeatherDisplay:10.37,2013-02-07 17:00:00,
2013-02-08 06:15:00,7.8,-0.9,28.90,NE,46,3.0,3.0,67,0.00,CLR,,0.00,WeatherDisplay:10.37,2013-02-07 17:15:00,
2013-02-08 06:30:00,7.6,-1.4,28.89,NE,45,5.0,5.0,66,0.00,CLR,,0.00,WeatherDisplay:10.37,2013-02-07 17:30:00,
2013-02-08 06:45:00,7.3,-1.1,28.89,NE,48,6.0,6.0,68,0.00,CLR,,0.00,WeatherDisplay:10.37,2013-02-07 17:45:00,
2013-02-08 07:00:00,7.2,-1.8,28.89,ENE,69,5.0,6.0,66,0.00,CLR,,0.00,WeatherDisplay:10.37,2013-02-07 18:00:00,
2013-02-08 07:15:00,7.0,-1.7,28.89,East,79,2.0,5.0,67,0.00,CLR,,0.00,WeatherDisplay:10.37,2013-02-07 18:15:00,
2013-02-08 07:30:00,6.5,-1.8,28.89,East,97,5.0,5.0,68,0.00,CLR,,0.00,WeatherDisplay:10.37,2013-02-07 18:30:00,
2013-02-08 07:45:00,5.6,-1.5,28.89,East,80,1.0,5.0,72,0.00,CLR,,0.00,WeatherDisplay:10.37,2013-02-07 18:45:00,
2013-02-08 08:00:00,5.6,-1.7,28.89,ENE,75,1.0,1.0,71,0.00,CLR,,0.00,WeatherDisplay:10.37,2013-02-07 19:00:00,
2013-02-08 08:15:00,6.2,-1.8,28.90,North,0,0.0,1.0,69,0.00,CLR,,0.00,WeatherDisplay:10.37,2013-02-07 19:15:00,
2013-02-08 08:30:00,6.2,-1.5,28.90,North,0,0.0,0.0,70,0.00,CLR,,0.00,WeatherDisplay:10.37,2013-02-07 19:30:00,
2013-02-08 08:45:00,6.7,-1.7,28.90,North,0,0.0,0.0,68,0.00,CLR,,0.00,WeatherDisplay:10.37,2013-02-07 19:45:00,
2013-02-08 09:00:00,7.0,-1.7,28.89,North,0,0.0,0.0,67,0.00,CLR,,0.00,WeatherDisplay:10.37,2013-02-07 20:00:00,
2013-02-08 09:15:00,6.3,-2.0,28.89,North,0,0.0,0.0,68,0.00,CLR,,0.00,WeatherDisplay:10.37,2013-02-07 20:15:00,
2013-02-08 09:30:00,6.5,-1.5,28.90,North,0,0.0,0.0,69,0.00,CLR,,0.00,WeatherDisplay:10.37,2013-02-07 20:30:00,
2013-02-08 09:45:00,7.3,-0.7,28.90,NNE,24,6.0,6.0,69,0.00,CLR,,0.00,WeatherDisplay:10.37,2013-02-07 20:45:00,
2013-02-08 10:00:00,7.2,-0.8,28.90,NNE,17,7.0,7.0,69,0.00,CLR,,0.00,WeatherDisplay:10.37,2013-02-07 21:00:00,
2013-02-08 10:15:00,8.3,-0.4,28.90,NNE,26,6.0,7.0,67,0.00,CLR,,0.00,WeatherDisplay:10.37,2013-02-07 21:15:00,
2013-02-08 10:30:00,8.1,0.1,28.90,NNE,23,7.0,7.0,69,0.00,CLR,,0.00,WeatherDisplay:10.37,2013-02-07 21:30:00,
2013-02-08 10:45:00,9.0,0.2,28.90,NNE,33,6.0,7.0,67,0.00,CLR,,0.00,WeatherDisplay:10.37,2013-02-07 21:45:00,
2013-02-08 11:00:00,9.6,0.5,28.90,NNE,30,7.0,7.0,66,0.00,CLR,,0.00,WeatherDisplay:10.37,2013-02-07 22:00:00,
2013-02-08 11:15:00,10.2,0.7,28.90,NNE,29,8.0,8.0,65,0.00,CLR,,0.00,WeatherDisplay:10.37,2013-02-07 22:15:00,
2013-02-08 11:30:00,10.9,-0.2,28.90,NNE,32,9.0,9.0,60,0.00,CLR,,0.00,WeatherDisplay:10.37,2013-02-07 22:30:00,
2013-02-08 11:45:00,11.9,-0.8,28.90,NE,37,8.0,9.0,56,0.00,CLR,,0.00,WeatherDisplay:10.37,2013-02-07 22:45:00,
2013-02-08 12:00:00,12.2,-0.9,28.89,NNE,32,9.0,9.0,55,0.00,CLR,,0.00,WeatherDisplay:10.37,2013-02-07 23:00:00,
2013-02-08 12:15:00,12.2,-0.1,28.89,NNE,32,9.0,9.0,57,0.00,CLR,,0.00,WeatherDisplay:10.37,2013-02-07 23:15:00,
2013-02-08 12:30:00,12.1,0.5,28.89,NNE,33,10.0,10.0,59,0.00,CLR,,0.00,WeatherDisplay:10.37,2013-02-07 23:30:00,
2013-02-08 13:00:00,12.6,2.0,28.89,NNE,30,9.0,9.0,62,0.00,CLR,,0.00,WeatherDisplay:10.37,2013-02-08 00:00:00,
2013-02-08 13:15:00,12.9,0.5,28.89,NNE,27,10.0,10.0,57,0.00,CLR,,0.00,WeatherDisplay:10.37,2013-02-08 00:15:00,
2013-02-08 13:30:00,13.2,0.7,28.89,NNE,25,12.0,12.0,57,0.00,CLR,,0.00,WeatherDisplay:10.37,2013-02-08 00:30:00,
2013-02-08 13:45:00,13.5,-0.5,28.89,NNE,26,13.0,13.0,53,0.00,CLR,,0.00,WeatherDisplay:10.37,2013-02-08 00:45:00,
2013-02-08 14:00:00,13.9,-0.1,28.89,NNE,30,12.0,13.0,53,0.00,CLR,,0.00,WeatherDisplay:10.37,2013-02-08 01:00:00,
2013-02-08 14:15:00,14.2,-1.1,28.89,NNE,28,12.0,12.0,50,0.00,CLR,,0.00,WeatherDisplay:10.37,2013-02-08 01:15:00,
2013-02-08 14:30:00,14.1,-2.1,28.89,NNE,29,12.0,12.0,48,0.00,CLR,,0.00,WeatherDisplay:10.37,2013-02-08 01:30:00,
2013-02-08 14:45:00,14.8,-1.9,28.88,NNE,25,10.0,12.0,47,0.00,CLR,,0.00,WeatherDisplay:10.37,2013-02-08 01:45:00,
2013-02-08 15:00:00,14.6,-2.5,28.88,NNE,26,9.0,10.0,46,0.00,CLR,,0.00,WeatherDisplay:10.37,2013-02-08 02:00:00,
2013-02-08 15:15:00,13.8,-1.0,28.88,NNE,27,8.0,9.0,51,0.00,CLR,,0.00,WeatherDisplay:10.37,2013-02-08 02:15:00,
2013-02-08 15:30:00,14.0,-1.2,28.88,NNE,30,8.0,8.0,50,0.00,CLR,,0.00,WeatherDisplay:10.37,2013-02-08 02:30:00,
2013-02-08 15:45:00,14.7,-1.0,28.88,NNE,23,8.0,8.0,49,0.00,CLR,,0.00,WeatherDisplay:10.37,2013-02-08 02:45:00,
2013-02-08 16:00:00,14.8,-1.4,28.88,NNE,29,7.0,8.0,48,0.00,CLR,,0.00,WeatherDisplay:10.37,2013-02-08 03:00:00,
2013-02-08 16:15:00,14.6,-0.2,28.88,NNE,27,5.0,7.0,51,0.00,CLR,,0.00,WeatherDisplay:10.37,2013-02-08 03:15:00,
2013-02-08 16:30:00,15.1,-0.3,28.88,NNE,29,7.0,7.0,50,0.00,CLR,,0.00,WeatherDisplay:10.37,2013-02-08 03:30:00,
2013-02-08 16:45:00,15.4,0.4,28.87,NE,38,5.0,7.0,51,0.00,CLR,,0.00,WeatherDisplay:10.37,2013-02-08 03:45:00,
2013-02-08 17:00:00,14.6,1.0,28.87,NE,41,5.0,5.0,54,0.00,CLR,,0.00,WeatherDisplay:10.37,2013-02-08 04:00:00,
2013-02-08 17:15:00,14.1,1.7,28.88,NE,45,6.0,6.0,57,0.00,CLR,,0.00,WeatherDisplay:10.37,2013-02-08 04:15:00,
2013-02-08 17:30:00,14.1,2.4,28.88,NE,40,7.0,7.0,59,0.00,CLR,,0.00,WeatherDisplay:10.37,2013-02-08 04:30:00,
2013-02-08 17:45:00,13.9,0.3,28.87,NNE,28,7.0,7.0,54,0.00,CLR,,0.00,WeatherDisplay:10.37,2013-02-08 04:45:00,
2013-02-08 18:00:00,14.5,-0.8,28.87,NNE,31,7.0,7.0,50,0.00,CLR,,0.00,WeatherDisplay:10.37,2013-02-08 05:00:00,
2013-02-08 18:15:00,14.0,-0.8,28.87,NNE,33,8.0,8.0,51,0.00,CLR,,0.00,WeatherDisplay:10.37,2013-02-08 05:15:00,
2013-02-08 18:30:00,14.1,-1.6,28.87,NNE,25,8.0,8.0,49,0.00,CLR,,0.00,WeatherDisplay:10.37,2013-02-08 05:30:00,
2013-02-08 18:45:00,14.3,-1.4,28.87,NNE,27,8.0,8.0,49,0.00,CLR,,0.00,WeatherDisplay:10.37,2013-02-08 05:45:00,
2013-02-08 19:00:00,14.2,-1.5,28.87,NNE,27,8.0,8.0,49,0.00,CLR,,0.00,WeatherDisplay:10.37,2013-02-08 06:00:00,
2013-02-08 19:15:00,14.1,-0.7,28.87,NNE,20,9.0,9.0,51,0.00,CLR,,0.00,WeatherDisplay:10.37,2013-02-08 06:15:00,
2013-02-08 19:30:00,13.8,-0.6,28.87,NNE,19,9.0,9.0,52,0.00,CLR,,0.00,WeatherDisplay:10.37,2013-02-08 06:30:00,
2013-02-08 19:45:00,13.1,-0.1,28.87,NNE,25,10.0,10.0,55,0.00,CLR,,0.00,WeatherDisplay:10.37,2013-02-08 06:45:00,
2013-02-08 20:00:00,12.6,0.2,28.87,NNE,23,12.0,12.0,57,0.00,CLR,,0.00,WeatherDisplay:10.37,2013-02-08 07:00:00,
2013-02-08 20:15:00,12.0,-0.3,28.87,NNE,29,12.0,12.0,57,0.00,CLR,,0.00,WeatherDisplay:10.37,2013-02-08 07:15:00,
2013-02-08 20:30:00,11.2,-0.3,28.87,NE,38,12.0,12.0,59,0.00,CLR,,0.00,WeatherDisplay:10.37,2013-02-08 07:30:00,
2013-02-08 20:45:00,10.5,1.0,28.87,NNE,26,12.0,12.0,65,0.00,CLR,,0.00,WeatherDisplay:10.37,2013-02-08 07:45:00,
2013-02-08 21:00:00,11.1,2.3,28.87,NNE,23,10.0,12.0,67,0.00,CLR,,0.00,WeatherDisplay:10.37,2013-02-08 08:00:00,
2013-02-08 21:15:00,11.7,0.8,28.87,NNE,25,9.0,10.0,61,0.00,CLR,,0.00,WeatherDisplay:10.37,2013-02-08 08:15:00,
2013-02-08 21:30:00,11.4,-0.2,28.87,NNE,29,9.0,9.0,59,0.00,CLR,,0.00,WeatherDisplay:10.37,2013-02-08 08:30:00,
2013-02-08 21:45:00,6.4,-1.9,28.87,NE,38,9.0,9.0,68,0.00,CLR,,0.00,WeatherDisplay:10.37,2013-02-08 08:45:00,
2013-02-08 22:00:00,6.4,-1.6,28.87,NNE,33,10.0,10.0,69,0.00,CLR,,0.00,WeatherDisplay:10.37,2013-02-08 09:00:00,
2013-02-08 22:15:00,9.9,0.1,28.87,NNE,33,13.0,13.0,64,0.00,CLR,,0.00,WeatherDisplay:10.37,2013-02-08 09:15:00,
2013-02-08 22:30:00,9.4,0.0,28.88,NNE,33,13.0,13.0,65,0.00,CLR,,0.00,WeatherDisplay:10.37,2013-02-08 09:30:00,
2013-02-08 22:45:00,8.2,0.2,28.87,NNE,32,10.0,13.0,69,0.00,CLR,,0.00,WeatherDisplay:10.37,2013-02-08 09:45:00,
2013-02-08 23:00:00,8.5,1.3,28.87,NE,34,10.0,10.0,72,0.00,CLR,,0.00,WeatherDisplay:10.37,2013-02-08 10:00:00,
2013-02-08 23:15:00,8.0,1.1,28.87,NE,37,10.0,10.0,73,0.00,CLR,,0.00,WeatherDisplay:10.37,2013-02-08 10:15:00,
2013-02-08 23:30:00,6.7,-0.1,28.87,NNE,33,12.0,12.0,73,0.00,CLR,,0.00,WeatherDisplay:10.37,2013-02-08 10:30:00,
2013-02-08 23:45:00,7.1,0.6,28.87,NNE,32,12.0,12.0,74,0.00,CLR,,0.00,WeatherDisplay:10.37,2013-02-08 10:45:00,